Time;durP1;ratioP1;P1;durP2;ratioP2;P2;SDS_P1;SDS_P2;PMS_P1;PMS_P2;Temp;Humidity;BMP_temperature;BMP_pressure;BME280_temperature;BME280_humidity;BME280_pressure;Samples;Min_cycle;Max_cycle;Signal;HPM_P1;HPM_P2
2022/09/09 00:00:41;;;;;;;2.53;1.30;;;;;;;14.94;65.70;100701.81;2055666;28;20102;-72
2022/09/09 00:02:19;;;;;;;6.82;1.20;;;;;;;14.93;65.50;100702.91;2062477;28;20061;-72
2022/09/09 00:03:35;;;;;;;2.22;1.35;;;;;;;14.94;65.22;100714.53;2043248;29;20039;-72
2022/09/09 00:04:38;;;;;;;3.65;1.42;;;;;;;14.92;65.77;100733.78;2029677;29;20052;-72
2022/09/09 00:06:13;;;;;;;5.15;1.65;;;;;;;14.88;65.88;100694.06;2042389;28;20063;-72
2022/09/09 00:07:23;;;;;;;2.85;1.23;;;;;;;14.87;65.85;100711.44;2052075;28;20047;-72
2022/09/09 00:08:55;;;;;;;3.95;1.20;;;;;;;14.83;65.52;100695.00;2050081;28;20035;-73
2022/09/09 00:10:31;;;;;;;3.50;1.30;;;;;;;14.84;65.69;100677.63;2049963;28;20054;-73
2022/09/09 00:11:47;;;;;;;6.82;1.42;;;;;;;14.82;66.06;100690.69;2042663;29;20672;-73
2022/09/09 00:13:02;;;;;;;8.45;1.42;;;;;;;14.82;66.13;100705.03;2052217;28;20058;-71
2022/09/09 00:14:24;;;;;;;4.88;3.33;;;;;;;14.79;66.24;100678.56;2049790;28;20055;-72
2022/09/09 00:15:41;;;;;;;3.35;1.27;;;;;;;14.82;66.27;100682.56;2053124;28;20050;-71
2022/09/09 00:16:50;;;;;;;2.05;1.23;;;;;;;14.85;66.42;100690.09;2057695;28;20038;-72
2022/09/09 00:18:47;;;;;;;2.75;1.50;;;;;;;14.84;66.20;100691.19;2063384;28;20038;-72
2022/09/09 00:19:52;;;;;;;3.53;1.20;;;;;;;14.85;65.69;100673.84;2053994;28;20398;-72
2022/09/09 00:21:06;;;;;;;2.00;1.30;;;;;;;14.83;65.73;100678.75;2041443;28;20048;-72
2022/09/09 00:22:23;;;;;;;1.85;1.30;;;;;;;14.79;65.92;100673.16;2052109;28;20058;-71
2022/09/09 00:23:32;;;;;;;1.63;1.25;;;;;;;14.77;66.23;100677.25;2049284;28;20035;-71
2022/09/09 00:24:55;;;;;;;3.80;1.60;;;;;;;14.79;66.27;100677.78;2055267;28;20054;-71
2022/09/09 00:26:05;;;;;;;2.72;1.15;;;;;;;14.75;66.92;100669.47;2063362;28;20045;-70
2022/09/09 00:27:17;;;;;;;2.75;1.42;;;;;;;14.74;66.40;100672.47;2054104;28;20039;-71
2022/09/09 00:28:22;;;;;;;2.95;1.15;;;;;;;14.72;66.54;100664.66;2050420;28;20395;-71
2022/09/09 00:29:38;;;;;;;2.50;1.20;;;;;;;14.75;66.32;100674.88;2055518;28;20161;-71
2022/09/09 00:30:41;;;;;;;3.75;1.48;;;;;;;14.76;65.94;100664.84;2046969;29;20101;-71
2022/09/09 00:31:49;;;;;;;3.65;1.70;;;;;;;14.75;66.30;100669.47;2042954;28;20040;-71
2022/09/09 00:33:03;;;;;;;2.10;1.30;;;;;;;14.75;66.45;100674.06;2054993;28;20038;-73
2022/09/09 00:34:17;;;;;;;3.03;1.50;;;;;;;14.73;66.52;100665.44;2063624;28;20058;-72
2022/09/09 00:35:18;;;;;;;3.92;1.20;;;;;;;14.73;66.70;100679.78;2055275;28;20041;-72
2022/09/09 00:36:28;;;;;;;3.92;1.65;;;;;;;14.74;67.69;100665.13;2055297;28;20041;-72
2022/09/09 00:37:35;;;;;;;2.75;1.20;;;;;;;14.75;67.49;100668.63;2057161;28;20034;-72
2022/09/09 00:38:47;;;;;;;3.53;1.00;;;;;;;14.77;66.93;100661.03;2071915;28;20512;-72
2022/09/09 00:39:54;;;;;;;2.78;1.30;;;;;;;14.75;67.04;100657.81;2056737;28;20046;-72
2022/09/09 00:41:02;;;;;;;;;;;;;;;14.70;66.84;100674.97;2050139;28;20423;-72
2022/09/09 00:42:39;;;;;;;4.75;1.27;;;;;;;14.75;67.07;100657.81;2063538;28;20286;-72
2022/09/09 00:44:13;;;;;;;1.92;1.30;;;;;;;14.74;67.40;100672.47;2054223;28;20035;-72
2022/09/09 00:45:20;;;;;;;2.95;1.20;;;;;;;14.71;67.26;100654.91;2043295;29;20051;-72
2022/09/09 00:46:50;;;;;;;2.75;1.40;;;;;;;14.74;67.20;100651.59;2048957;28;20070;-72
2022/09/09 00:48:02;;;;;;;3.45;1.20;;;;;;;14.72;67.11;100680.06;2047379;29;20039;-71
2022/09/09 00:49:15;;;;;;;3.72;1.70;;;;;;;14.76;67.27;100654.00;2049356;28;20046;-72
2022/09/09 00:50:34;;;;;;;5.82;1.50;;;;;;;14.70;66.80;100661.44;2055343;28;20027;-73
2022/09/09 00:52:18;;;;;;;1.92;1.23;;;;;;;14.73;66.80;100662.75;2052860;28;20055;-72
2022/09/09 00:54:01;;;;;;;2.50;1.10;;;;;;;14.72;66.58;100653.00;2055130;28;20054;-73
2022/09/09 00:55:05;;;;;;;;;;;;;;;14.76;66.29;100659.44;2050353;28;20069;-72
2022/09/09 00:56:21;;;;;;;3.08;1.08;;;;;;;14.72;65.67;100653.00;2056172;28;19918;-72
2022/09/09 00:57:26;;;;;;;2.83;1.45;;;;;;;14.72;66.01;100650.28;2047531;28;20719;-72
2022/09/09 00:58:29;;;;;;;3.75;1.13;;;;;;;14.71;65.77;100670.34;2040504;28;20039;-72
2022/09/09 00:59:55;;;;;;;1.83;1.20;;;;;;;14.72;65.63;100661.94;2047784;28;20046;-73
2022/09/09 01:01:15;;;;;;;3.15;1.25;;;;;;;14.76;65.57;100654.00;2050853;28;20043;-72
2022/09/09 01:02:33;;;;;;;;;;;;;;;14.79;65.87;100642.59;2055862;28;20046;-73
2022/09/09 01:03:58;;;;;;;4.07;1.15;;;;;;;14.81;65.65;100662.00;2050041;28;20337;-73
2022/09/09 01:05:12;;;;;;;1.95;1.17;;;;;;;14.77;65.54;100647.50;2050659;28;20039;-72
2022/09/09 01:06:25;;;;;;;1.80;1.00;;;;;;;14.73;65.87;100657.34;2055302;28;20042;-73
2022/09/09 01:07:28;;;;;;;3.03;1.30;;;;;;;14.74;65.19;100656.22;2048651;28;20043;-73
2022/09/09 01:09:19;;;;;;;2.42;1.30;;;;;;;14.73;64.82;100641.88;2050462;28;20418;-73
2022/09/09 01:10:36;;;;;;;2.30;1.35;;;;;;;14.77;65.41;100644.78;2056733;28;20061;-72
2022/09/09 01:12:10;;;;;;;5.45;1.30;;;;;;;14.79;65.83;100656.13;2055074;28;20046;-72
2022/09/09 01:13:22;;;;;;;1.33;0.93;;;;;;;14.76;65.29;100664.84;2055524;28;20057;-73
2022/09/09 01:14:36;;;;;;;2.42;1.15;;;;;;;14.72;65.34;100661.13;2055118;28;20077;-72
2022/09/09 01:15:42;;;;;;;7.80;1.75;;;;;;;14.73;65.22;100654.63;2048949;28;20054;-72
2022/09/09 01:16:48;;;;;;;3.10;1.30;;;;;;;14.74;65.01;100650.81;2047342;29;20110;-74
2022/09/09 01:17:55;;;;;;;2.90;1.10;;;;;;;14.76;65.39;100656.72;2039575;29;20078;-72
2022/09/09 01:19:00;;;;;;;6.38;1.20;;;;;;;14.72;65.31;100659.25;2048120;28;20065;-72
2022/09/09 01:20:16;;;;;;;4.00;1.23;;;;;;;14.74;65.73;100656.22;2047152;29;20039;-72
2022/09/09 01:22:01;;;;;;;4.95;1.20;;;;;;;14.78;66.12;100649.09;2058890;28;20046;-72
2022/09/09 01:23:40;;;;;;;4.78;1.50;;;;;;;14.76;66.20;100638.56;2037837;29;20050;-73
2022/09/09 01:25:19;;;;;;;7.95;1.40;;;;;;;14.75;66.39;100647.81;2055063;28;20035;-73
2022/09/09 01:26:48;;;;;;;2.97;1.20;;;;;;;14.73;66.52;100651.91;2052753;28;20384;-73
2022/09/09 01:28:06;;;;;;;5.03;1.63;;;;;;;14.76;66.33;100656.72;2051340;28;20048;-73
2022/09/09 01:29:12;;;;;;;2.30;1.02;;;;;;;14.72;65.72;100663.81;2041990;29;20043;-73
2022/09/09 01:30:20;;;;;;;3.22;0.93;;;;;;;14.72;65.70;100653.81;2057484;28;20031;-74
2022/09/09 01:31:32;;;;;;;1.63;1.10;;;;;;;14.71;66.24;100637.88;2056610;28;20046;-73
2022/09/09 01:32:48;;;;;;;3.73;1.27;;;;;;;14.68;66.22;100647.41;2053696;28;20051;-73
2022/09/09 01:33:53;;;;;;;2.30;0.98;;;;;;;14.68;66.11;100654.72;2056709;28;20654;-73
2022/09/09 01:34:57;;;;;;;6.13;1.73;;;;;;;14.69;66.26;100657.13;2056748;28;20047;-73
2022/09/09 01:36:22;;;;;;;2.70;1.10;;;;;;;14.70;66.12;100655.22;2061858;28;20050;-73
2022/09/09 01:37:32;;;;;;;4.95;1.45;;;;;;;14.72;66.04;100664.66;2044303;29;20038;-73
2022/09/09 01:38:38;;;;;;;3.72;1.40;;;;;;;14.72;65.92;100650.28;2041700;29;20047;-73
2022/09/09 01:39:45;;;;;;;6.43;1.45;;;;;;;14.72;65.90;100648.41;2047557;28;20039;-73
2022/09/09 01:40:52;;;;;;;5.60;1.60;;;;;;;14.73;66.06;100660.03;2049311;28;20038;-73
2022/09/09 01:41:57;;;;;;;3.15;1.40;;;;;;;14.75;66.27;100638.88;2049953;28;20055;-72
2022/09/09 01:43:01;;;;;;;6.68;1.58;;;;;;;14.72;66.26;100663.81;2059914;28;20041;-74
2022/09/09 01:44:07;;;;;;;9.77;1.35;;;;;;;14.71;65.99;100637.88;2056733;28;20039;-73
2022/09/09 01:45:15;;;;;;;5.18;1.50;;;;;;;14.72;66.21;100647.59;2049369;28;20570;-73
2022/09/09 01:46:21;;;;;;;5.43;1.30;;;;;;;14.71;65.90;100657.63;2050332;28;20035;-73
2022/09/09 01:47:26;;;;;;;3.38;1.33;;;;;;;14.69;66.20;100649.03;2056511;28;20039;-73
2022/09/09 01:49:04;;;;;;;2.65;1.38;;;;;;;14.71;65.88;100651.41;2061376;28;20057;-73
2022/09/09 01:50:11;;;;;;;2.10;1.38;;;;;;;14.71;65.47;100676.56;2061839;28;20054;-73
2022/09/09 01:51:18;;;;;;;1.65;1.05;;;;;;;14.68;65.13;100650.09;2057882;28;20054;-73
2022/09/09 01:52:27;;;;;;;3.63;1.02;;;;;;;14.72;65.58;100647.59;2049433;28;20039;-72
2022/09/09 01:53:30;;;;;;;3.70;1.65;;;;;;;14.75;64.99;100657.81;2058586;28;20047;-72
2022/09/09 01:54:33;;;;;;;2.50;1.50;;;;;;;14.76;65.44;100643.19;2048036;28;20046;-72
2022/09/09 01:55:48;;;;;;;3.65;1.40;;;;;;;14.78;65.51;100646.38;2042045;28;20058;-72
2022/09/09 01:57:31;;;;;;;3.95;1.55;;;;;;;14.82;65.44;100645.47;2050077;28;20047;-73
2022/09/09 01:59:14;;;;;;;2.33;1.30;;;;;;;14.80;64.59;100647.69;2045123;29;20051;-72
2022/09/09 02:00:24;;;;;;;2.85;1.50;;;;;;;14.81;64.78;100643.84;2043434;29;20039;-72
2022/09/09 02:01:46;;;;;;;3.33;1.40;;;;;;;14.80;64.79;100644.97;2043927;28;20035;-72
2022/09/09 02:03:03;;;;;;;3.72;1.40;;;;;;;14.82;64.98;100647.38;2062517;28;20046;-74
2022/09/09 02:04:39;;;;;;;5.40;1.40;;;;;;;14.81;65.21;100643.06;2060746;28;20046;-74
2022/09/09 02:06:01;;;;;;;4.75;1.50;;;;;;;14.81;65.26;100634.94;2064611;28;20049;-73
2022/09/09 02:07:11;;;;;;;3.35;1.45;;;;;;;14.81;65.54;100645.78;2056717;28;20043;-73
2022/09/09 02:08:45;;;;;;;4.68;1.30;;;;;;;14.80;65.03;100638.75;2066512;28;20041;-72
2022/09/09 02:09:51;;;;;;;2.15;1.23;;;;;;;14.77;65.45;100634.75;2052534;28;20431;-72
2022/09/09 02:11:08;;;;;;;3.90;1.40;;;;;;;14.79;65.12;100642.59;2057811;28;20047;-72
2022/09/09 02:12:25;;;;;;;4.82;1.63;;;;;;;14.79;65.17;100640.66;2069165;28;20073;-72
2022/09/09 02:13:36;;;;;;;1.83;1.25;;;;;;;14.82;65.34;100636.56;2056559;28;20057;-72
2022/09/09 02:14:52;;;;;;;5.93;1.40;;;;;;;14.81;64.83;100630.31;2067019;28;20045;-72
2022/09/09 02:16:06;;;;;;;3.03;1.57;;;;;;;14.83;63.96;100632.75;2062152;28;20458;-73
2022/09/09 02:17:13;;;;;;;3.85;1.45;;;;;;;14.84;64.48;100637.84;2057916;28;20251;-72
2022/09/09 02:18:55;;;;;;;3.35;1.60;;;;;;;14.84;64.20;100631.63;2059250;28;20041;-71
2022/09/09 02:20:16;;;;;;;3.75;1.42;;;;;;;14.87;64.50;100633.72;2052322;28;20043;-71
2022/09/09 02:21:28;;;;;;;5.47;1.73;;;;;;;14.87;64.74;100636.44;2058717;28;20454;-72
2022/09/09 02:22:34;;;;;;;9.77;1.60;;;;;;;14.89;64.21;100626.09;2064648;28;20517;-71
2022/09/09 02:23:46;;;;;;;4.43;1.48;;;;;;;14.88;64.10;100629.94;2057728;28;20046;-71
2022/09/09 02:24:52;;;;;;;7.22;2.38;;;;;;;14.89;64.43;100631.53;2066022;28;20422;-72
2022/09/09 02:26:01;;;;;;;5.57;1.63;;;;;;;14.87;63.65;100655.38;2056432;28;20498;-72
2022/09/09 02:27:13;;;;;;;3.38;1.50;;;;;;;14.82;63.55;100636.56;2057190;28;20407;-72
2022/09/09 02:28:17;;;;;;;2.92;1.55;;;;;;;14.83;62.94;100635.44;2041729;29;20044;-71
2022/09/09 02:29:28;;;;;;;5.80;1.73;;;;;;;14.86;62.67;100642.97;2033987;28;20489;-72
2022/09/09 02:30:40;;;;;;;2.15;1.50;;;;;;;14.84;61.97;100626.22;2050081;28;20059;-71
2022/09/09 02:31:47;;;;;;;5.50;1.48;;;;;;;14.86;61.80;100653.00;2041326;28;20051;-72
2022/09/09 02:32:59;;;;;;;8.43;1.30;;;;;;;14.84;62.39;100629.72;2054926;28;20042;-72
2022/09/09 02:34:24;;;;;;;3.35;1.15;;;;;;;14.82;61.41;100639.28;2047319;28;20047;-73
2022/09/09 02:35:28;;;;;;;2.58;1.25;;;;;;;14.84;61.71;100642.44;2043732;28;20054;-72
2022/09/09 02:36:35;;;;;;;5.55;1.30;;;;;;;14.80;61.98;100655.00;2048672;28;20124;-72
2022/09/09 02:37:45;;;;;;;6.77;1.13;;;;;;;14.79;61.45;100629.84;2049331;28;20054;-72
2022/09/09 02:38:50;;;;;;;2.53;1.40;;;;;;;14.79;61.48;100637.16;2048287;29;20287;-71
2022/09/09 02:39:57;;;;;;;3.50;1.40;;;;;;;14.80;61.23;100633.34;2044771;28;20174;-72
2022/09/09 02:41:01;;;;;;;5.80;1.73;;;;;;;14.82;61.35;100645.47;2048883;28;20046;-71
2022/09/09 02:42:10;;;;;;;4.18;1.60;;;;;;;14.79;61.31;100643.38;2048689;28;20700;-72
2022/09/09 02:43:16;;;;;;;2.72;1.30;;;;;;;14.81;61.50;100645.78;2057074;28;20050;-71
2022/09/09 02:44:20;;;;;;;3.72;1.63;;;;;;;14.78;61.41;100630.94;2041201;29;20031;-71
2022/09/09 02:45:30;;;;;;;5.53;1.50;;;;;;;14.77;60.92;100640.16;2049776;28;20460;-72
2022/09/09 02:46:55;;;;;;;4.35;1.60;;;;;;;14.76;60.97;100637.78;2056306;28;20042;-73
2022/09/09 02:47:57;;;;;;;4.78;1.80;;;;;;;14.78;61.04;100640.97;2043320;29;20065;-72
2022/09/09 02:49:26;;;;;;;2.08;1.23;;;;;;;14.76;61.47;100632.38;2048387;28;20043;-72
2022/09/09 02:50:42;;;;;;;2.13;1.38;;;;;;;14.77;61.94;100625.84;2059808;28;20037;-72
2022/09/09 02:52:06;;;;;;;2.60;1.27;;;;;;;14.72;62.32;100636.75;2050259;28;20039;-72
2022/09/09 02:53:20;;;;;;;3.78;1.40;;;;;;;14.73;62.11;100631.06;2054675;28;20117;-74
2022/09/09 02:54:36;;;;;;;3.78;1.40;;;;;;;14.73;61.98;100632.97;2058077;28;20404;-73
2022/09/09 02:55:42;;;;;;;1.73;1.13;;;;;;;14.74;61.74;100656.22;2057998;28;20055;-73
2022/09/09 02:56:56;;;;;;;2.50;1.15;;;;;;;14.72;61.77;100632.19;2055960;28;20097;-72
2022/09/09 02:58:12;;;;;;;4.03;1.45;;;;;;;14.72;61.60;100632.19;2045126;28;20054;-73
2022/09/09 02:59:15;;;;;;;2.17;1.20;;;;;;;14.69;61.44;100648.19;2059403;28;20047;-72
2022/09/09 03:00:27;;;;;;;6.13;1.40;;;;;;;14.69;62.05;100632.78;2064049;28;20038;-72
2022/09/09 03:01:32;;;;;;;5.60;1.30;;;;;;;14.68;62.13;100633.06;2057644;28;20529;-71
2022/09/09 03:02:38;;;;;;;1.98;1.17;;;;;;;14.72;62.23;100623.22;2048528;28;20047;-72
2022/09/09 03:03:46;;;;;;;3.15;1.60;;;;;;;14.69;62.14;100643.59;2058354;28;20442;-73
2022/09/09 03:04:51;;;;;;;5.82;1.20;;;;;;;14.67;61.45;100645.00;2063897;28;20054;-73
2022/09/09 03:05:54;;;;;;;2.75;1.17;;;;;;;14.70;61.41;100633.59;2048257;28;20054;-73
2022/09/09 03:06:59;;;;;;;3.58;1.42;;;;;;;14.72;61.49;100636.75;2048470;28;20574;-73
2022/09/09 03:08:05;;;;;;;2.20;1.10;;;;;;;14.67;61.50;100650.44;2056620;28;20407;-73
2022/09/09 03:09:10;;;;;;;2.58;1.55;;;;;;;14.64;61.69;100634.78;2055859;28;20050;-72
2022/09/09 03:10:13;;;;;;;2.72;1.42;;;;;;;14.64;61.27;100634.78;2048721;28;20047;-71
2022/09/09 03:11:18;;;;;;;2.67;1.33;;;;;;;14.64;61.45;100634.78;2056225;28;20049;-72
2022/09/09 03:12:28;;;;;;;3.28;1.48;;;;;;;14.62;61.32;100680.28;2057259;28;20042;-73
2022/09/09 03:13:30;;;;;;;3.92;1.58;;;;;;;14.62;61.14;100642.41;2057094;28;20046;-73
2022/09/09 03:14:38;;;;;;;6.43;1.60;;;;;;;14.65;61.04;100648.00;2056780;28;20039;-73
2022/09/09 03:15:42;;;;;;;3.78;1.75;;;;;;;14.60;61.20;100643.53;2048799;28;20054;-72
2022/09/09 03:16:52;;;;;;;4.25;1.42;;;;;;;14.64;61.15;100640.19;2051033;28;20799;-73
2022/09/09 03:17:56;;;;;;;4.05;1.70;;;;;;;14.66;61.33;100654.22;2048454;28;20058;-73
2022/09/09 03:19:01;;;;;;;2.28;1.40;;;;;;;14.65;61.39;100655.31;2048821;28;20051;-73
2022/09/09 03:20:07;;;;;;;4.20;1.20;;;;;;;14.60;61.64;100640.00;2056956;28;20047;-74
2022/09/09 03:21:14;;;;;;;5.03;1.55;;;;;;;14.66;61.77;100648.81;2048863;28;20051;-74
2022/09/09 03:22:17;;;;;;;3.35;1.73;;;;;;;14.65;61.43;100645.31;2056123;28;20050;-73
2022/09/09 03:23:21;;;;;;;5.00;1.50;;;;;;;14.64;61.71;100634.78;2040425;28;20054;-74
2022/09/09 03:24:27;;;;;;;3.17;1.50;;;;;;;14.68;61.59;100633.06;2056568;28;20045;-73
2022/09/09 03:25:33;;;;;;;3.60;1.33;;;;;;;14.67;61.84;100653.13;2064118;28;20917;-73
2022/09/09 03:26:40;;;;;;;5.75;1.70;;;;;;;14.67;61.75;100640.41;2048887;28;20058;-73
2022/09/09 03:27:47;;;;;;;3.15;1.60;;;;;;;14.62;62.00;100642.41;2057407;28;20062;-73
2022/09/09 03:28:54;;;;;;;3.05;1.50;;;;;;;14.67;62.12;100639.59;2035579;29;20055;-73
2022/09/09 03:30:03;;;;;;;4.85;1.63;;;;;;;14.65;62.22;100631.78;2042448;28;20133;-73
2022/09/09 03:31:10;;;;;;;2.92;1.50;;;;;;;14.67;62.20;100628.78;2047924;28;20063;-74
2022/09/09 03:32:17;;;;;;;1.95;1.30;;;;;;;14.63;61.99;100654.81;2058505;28;20037;-72
2022/09/09 03:33:24;;;;;;;5.50;1.58;;;;;;;14.67;62.12;100645.00;2070883;28;20041;-73
2022/09/09 03:34:28;;;;;;;3.60;1.48;;;;;;;14.68;61.90;100652.00;2055778;28;20043;-73
2022/09/09 03:35:33;;;;;;;3.95;1.73;;;;;;;14.66;62.11;100637.97;2049060;28;20035;-73
2022/09/09 03:36:36;;;;;;;3.22;1.60;;;;;;;14.68;62.07;100647.41;2041836;28;20058;-73
2022/09/09 03:37:41;;;;;;;6.20;1.50;;;;;;;14.71;61.87;100643.28;2032629;29;20048;-73
2022/09/09 03:38:47;;;;;;;2.40;1.55;;;;;;;14.67;61.68;100651.22;2019319;29;20041;-73
2022/09/09 03:39:56;;;;;;;2.35;1.55;;;;;;;14.67;61.92;100645.00;2038006;28;20058;-72
2022/09/09 03:41:01;;;;;;;2.05;1.27;;;;;;;14.64;61.48;100649.13;2049026;28;20090;-73
2022/09/09 03:42:10;;;;;;;3.33;1.40;;;;;;;14.59;61.38;100641.91;2041394;28;20048;-73
2022/09/09 03:43:16;;;;;;;1.98;1.08;;;;;;;14.53;61.84;100639.59;2045990;28;20530;-73
2022/09/09 03:44:21;;;;;;;6.47;1.65;;;;;;;14.56;61.98;100653.34;2049439;28;20035;-72
2022/09/09 03:45:26;;;;;;;8.15;1.63;;;;;;;14.57;62.53;100654.94;2055735;28;20391;-71
2022/09/09 03:46:31;;;;;;;3.90;1.60;;;;;;;14.55;62.99;100659.06;2055392;28;20043;-72
2022/09/09 03:47:39;;;;;;;3.22;1.50;;;;;;;14.47;63.76;100652.44;2047944;28;20048;-73
2022/09/09 03:48:45;;;;;;;4.85;1.70;;;;;;;14.44;64.69;100669.25;2055496;28;20254;-72
2022/09/09 03:49:50;;;;;;;5.95;1.50;;;;;;;14.37;65.66;100674.25;2039755;29;20047;-72
2022/09/09 03:50:53;;;;;;;4.93;1.65;;;;;;;14.32;66.12;100647.31;2040199;29;20065;-71
2022/09/09 03:52:18;;;;;;;5.63;1.77;;;;;;;14.21;67.79;100667.53;2032503;29;20040;-72
2022/09/09 03:53:21;;;;;;;3.05;1.40;;;;;;;14.12;68.67;100665.56;2045316;28;20034;-70
2022/09/09 03:54:27;;;;;;;7.32;1.88;;;;;;;14.09;69.36;100665.31;2045951;28;20051;-69
2022/09/09 03:55:34;;;;;;;6.90;2.17;;;;;;;13.97;70.77;100663.13;2040177;29;20050;-68
2022/09/09 03:56:41;;;;;;;;;;;;;;;13.93;71.45;100664.00;2042508;28;20043;-68
2022/09/09 03:57:47;;;;;;;5.60;2.10;;;;;;;13.95;72.19;100665.31;2042996;29;19925;-68
2022/09/09 03:58:59;;;;;;;4.70;1.90;;;;;;;13.92;72.96;100665.91;2042808;28;20115;-70
2022/09/09 04:00:06;;;;;;;4.57;2.33;;;;;;;13.85;73.22;100671.72;2048842;28;20432;-69
2022/09/09 04:01:21;;;;;;;4.65;1.83;;;;;;;13.77;74.15;100669.69;2055769;28;20685;-69
2022/09/09 04:02:23;;;;;;;4.22;1.88;;;;;;;13.66;75.14;100671.75;2047737;29;20054;-69
2022/09/09 04:03:26;;;;;;;3.55;2.08;;;;;;;13.61;75.52;100685.34;2040055;28;20504;-70
2022/09/09 04:04:31;;;;;;;6.65;2.60;;;;;;;13.64;75.69;100657.75;2047740;28;20850;-69
2022/09/09 04:05:39;;;;;;;5.93;2.08;;;;;;;13.65;76.35;100675.56;2055630;28;20034;-70
2022/09/09 04:06:43;;;;;;;4.35;1.90;;;;;;;13.63;76.28;100676.97;2048307;28;20047;-69
2022/09/09 04:07:51;;;;;;;5.57;2.25;;;;;;;13.52;77.19;100668.22;2041371;28;20054;-69
2022/09/09 04:08:59;;;;;;;3.95;1.95;;;;;;;13.51;77.42;100682.81;2041162;28;20504;-69
2022/09/09 04:10:02;;;;;;;6.38;2.03;;;;;;;13.47;78.14;100700.72;2057457;28;20046;-69
2022/09/09 04:11:10;;;;;;;4.28;2.15;;;;;;;13.38;78.66;100680.88;2047640;28;20055;-68
2022/09/09 04:12:17;;;;;;;5.80;1.98;;;;;;;13.12;80.77;100689.34;2058563;28;20130;-68
2022/09/09 04:13:19;;;;;;;4.03;2.17;;;;;;;13.09;81.07;100684.50;2055800;28;20035;-68
2022/09/09 04:14:28;;;;;;;2.92;1.95;;;;;;;13.02;81.79;100676.00;2064984;28;20050;-68
2022/09/09 04:15:31;;;;;;;6.00;2.30;;;;;;;12.97;82.27;100686.84;2062587;28;20038;-68
2022/09/09 04:16:35;;;;;;;4.63;2.58;;;;;;;12.97;82.56;100686.84;2047994;28;20046;-68
2022/09/09 04:17:42;;;;;;;9.45;2.22;;;;;;;12.96;82.78;100686.03;2072221;28;20056;-69
2022/09/09 04:18:48;;;;;;;4.90;2.50;;;;;;;12.96;82.97;100688.75;2062827;28;20410;-68
2022/09/09 04:19:52;;;;;;;4.50;2.40;;;;;;;13.01;83.21;100678.97;2055894;28;20499;-68
2022/09/09 04:21:05;;;;;;;4.80;2.22;;;;;;;12.91;83.83;100685.31;2057242;28;20900;-69
2022/09/09 04:22:09;;;;;;;3.55;2.35;;;;;;;12.95;84.99;100689.03;2056721;28;20039;-69
2022/09/09 04:23:18;;;;;;;9.48;2.75;;;;;;;12.88;85.27;100686.69;2063264;28;20057;-68
2022/09/09 04:24:21;;;;;;;6.15;2.13;;;;;;;12.93;85.55;100685.81;2041844;28;20099;-70
2022/09/09 04:25:25;;;;;;;4.63;2.47;;;;;;;12.92;85.27;100679.59;2048398;28;20054;-69
2022/09/09 04:26:36;;;;;;;4.82;2.30;;;;;;;12.99;85.24;100684.66;2049999;28;20055;-69
2022/09/09 04:27:40;;;;;;;8.18;2.58;;;;;;;12.83;84.96;100680.53;2048983;28;20475;-69
2022/09/09 04:28:45;;;;;;;6.40;2.47;;;;;;;12.90;85.04;100681.00;2032649;29;20095;-68
2022/09/09 04:29:52;;;;;;;6.75;2.47;;;;;;;12.91;84.97;100691.50;2040299;29;20051;-68
2022/09/09 04:31:11;;;;;;;7.63;2.60;;;;;;;12.89;84.25;100684.78;2049667;28;20047;-69
2022/09/09 04:32:18;;;;;;;4.18;2.42;;;;;;;12.97;84.20;100692.25;2055467;28;20042;-70
2022/09/09 04:33:27;;;;;;;4.60;2.33;;;;;;;12.96;83.91;100688.75;2055620;28;20050;-70
2022/09/09 04:34:49;;;;;;;5.32;2.83;;;;;;;12.98;84.08;100688.44;2061721;28;20121;-70
2022/09/09 04:35:57;;;;;;;11.10;2.33;;;;;;;13.04;83.93;100698.06;2054789;28;20046;-71
2022/09/09 04:37:05;;;;;;;6.85;2.58;;;;;;;12.98;84.20;100693.84;2040148;29;20044;-69
2022/09/09 04:38:09;;;;;;;4.63;2.35;;;;;;;12.85;84.41;100697.25;2038629;28;20052;-70
2022/09/09 04:39:14;;;;;;;6.85;2.33;;;;;;;12.92;84.38;100690.41;2038580;29;20039;-69
2022/09/09 04:40:17;;;;;;;5.75;2.55;;;;;;;12.96;84.59;100701.44;2038629;28;20035;-69
2022/09/09 04:41:19;;;;;;;8.02;2.65;;;;;;;13.01;84.42;100698.66;2053572;28;20098;-71
2022/09/09 04:42:27;;;;;;;6.00;2.60;;;;;;;13.03;84.65;100699.19;2045412;28;20039;-69
2022/09/09 04:43:30;;;;;;;5.10;2.45;;;;;;;13.07;84.61;100702.88;2045294;28;20043;-69
2022/09/09 04:44:34;;;;;;;6.97;2.60;;;;;;;13.10;84.64;100706.91;2053735;28;20041;-70
2022/09/09 04:45:40;;;;;;;4.95;2.20;;;;;;;12.97;84.95;100725.44;2053474;28;20043;-70
2022/09/09 04:46:46;;;;;;;10.50;3.22;;;;;;;12.83;86.04;100707.53;2046346;28;20172;-69
2022/09/09 04:47:53;;;;;;;6.15;2.92;;;;;;;12.82;86.50;100712.13;2039421;28;20519;-70
2022/09/09 04:48:58;;;;;;;5.20;2.67;;;;;;;12.83;86.74;100702.97;2054559;28;20047;-68
2022/09/09 04:50:09;;;;;;;5.05;2.33;;;;;;;12.81;87.30;100698.94;2047821;28;20051;-67
2022/09/09 04:51:14;;;;;;;6.03;2.78;;;;;;;12.84;87.36;100711.84;2048027;28;20061;-67
2022/09/09 04:52:20;;;;;;;5.57;2.70;;;;;;;12.82;87.57;100703.22;2047060;28;20499;-68
2022/09/09 04:53:31;;;;;;;6.55;2.97;;;;;;;12.84;87.75;100704.56;2049476;28;20046;-68
2022/09/09 04:54:39;;;;;;;5.95;2.80;;;;;;;12.80;87.64;100713.50;2061896;28;20049;-68
2022/09/09 04:55:42;;;;;;;6.93;2.65;;;;;;;12.80;87.86;100708.09;2045833;28;20038;-68
2022/09/09 04:56:47;;;;;;;7.00;2.60;;;;;;;12.80;87.79;100713.50;2038817;28;20044;-68
2022/09/09 04:57:50;;;;;;;9.15;2.92;;;;;;;12.81;87.79;100705.13;2046396;28;20050;-70
2022/09/09 04:59:00;;;;;;;6.75;2.72;;;;;;;12.82;87.63;100705.94;2046885;28;20051;-69
2022/09/09 05:00:18;;;;;;;4.45;2.80;;;;;;;12.88;87.81;100715.56;2050617;28;20825;-68
2022/09/09 05:01:25;;;;;;;5.88;2.75;;;;;;;12.83;87.53;100713.75;2049272;28;20047;-69
2022/09/09 05:02:30;;;;;;;6.95;3.15;;;;;;;12.83;87.36;100712.94;2040039;29;20407;-69
2022/09/09 05:03:33;;;;;;;6.05;2.35;;;;;;;12.74;87.41;100710.09;2041598;28;20051;-70
2022/09/09 05:04:36;;;;;;;9.27;3.00;;;;;;;12.79;87.58;100711.91;2055939;28;20282;-69
2022/09/09 05:05:44;;;;;;;5.18;2.97;;;;;;;12.81;87.77;100717.81;2051743;28;20042;-70
2022/09/09 05:06:47;;;;;;;5.15;2.47;;;;;;;12.81;87.79;100712.44;2048637;28;20844;-69
2022/09/09 05:07:49;;;;;;;5.60;2.72;;;;;;;12.83;87.89;100718.31;2040073;29;20143;-72
2022/09/09 05:08:51;;;;;;;6.28;2.90;;;;;;;12.87;88.37;100713.97;2039803;28;20528;-72
2022/09/09 05:09:57;;;;;;;11.15;3.00;;;;;;;12.86;87.94;100715.03;2041198;28;20063;-71
2022/09/09 05:11:01;;;;;;;5.72;3.20;;;;;;;12.87;87.98;100717.47;2048454;28;20051;-79
2022/09/09 05:12:09;;;;;;;5.75;3.00;;;;;;;12.88;87.84;100710.16;2072915;28;20054;-75
2022/09/09 05:13:16;;;;;;;8.70;3.10;;;;;;;12.89;88.00;100717.16;2070683;28;20054;-73
2022/09/09 05:14:30;;;;;;;5.45;3.00;;;;;;;12.92;87.93;100716.59;2056525;28;20827;-74
2022/09/09 05:15:32;;;;;;;8.43;3.15;;;;;;;12.95;88.04;100721.41;2065326;28;20042;-73
2022/09/09 05:16:36;;;;;;;6.22;3.05;;;;;;;12.94;87.86;100719.81;2047652;28;20047;-71
2022/09/09 05:17:42;;;;;;;7.15;2.97;;;;;;;12.98;88.04;100712.72;2057404;28;20047;-70
2022/09/09 05:18:53;;;;;;;10.35;3.17;;;;;;;12.93;88.04;100713.63;2062228;28;20065;-74
2022/09/09 05:19:58;;;;;;;5.70;2.90;;;;;;;12.87;87.84;100714.78;2050635;28;20047;-71
2022/09/09 05:21:03;;;;;;;5.82;2.70;;;;;;;12.94;87.95;100719.81;2052886;28;20042;-72
2022/09/09 05:22:07;;;;;;;8.60;3.08;;;;;;;12.94;87.65;100722.50;2040123;29;20039;-71
2022/09/09 05:23:19;;;;;;;5.35;2.63;;;;;;;12.95;87.66;100716.81;2042584;28;20062;-71
2022/09/09 05:24:28;;;;;;;5.85;2.80;;;;;;;12.90;87.77;100721.50;2047532;28;20066;-71
2022/09/09 05:25:33;;;;;;;5.60;2.75;;;;;;;12.81;87.74;100715.94;2048921;28;20051;-71
2022/09/09 05:26:38;;;;;;;5.85;3.45;;;;;;;12.80;88.06;100714.34;2048302;28;20106;-70
2022/09/09 05:27:45;;;;;;;7.75;2.65;;;;;;;12.81;88.19;100712.44;2052050;28;20286;-71
2022/09/09 05:28:53;;;;;;;6.90;3.00;;;;;;;12.87;88.05;100722.06;2063907;28;20049;-70
2022/09/09 05:29:58;;;;;;;6.18;2.97;;;;;;;12.95;87.81;100726.81;2047663;29;20298;-70
2022/09/09 05:31:05;;;;;;;7.53;2.75;;;;;;;12.93;87.88;100720.91;2044587;28;20056;-71